<?xml version="1.0" encoding="UTF-8" standalone="no" ?>
<gpx xmlns="http://www.topografix.com/GPX/1/1" xmlns:xsi="http://www.w3.org/2001/XMLSchema-instance" xsi:schemaLocation="http://www.topografix.com/GPX/1/1 http://www.topografix.com/GPX/1/1/gpx.xsd" version="1.1" creator="VisuGPX - https://www.visugpx.com">
  <metadata>
    <name>MN 92 Meudon Soutenue A2</name>
    <desc><![CDATA[Marche Nordique dans le bois de Meudon, à allure soutenue, avec Annick.]]></desc>
  </metadata>
  <trk>
    <name><![CDATA[14 sept. 2014]]></name>
    <cmt><![CDATA[09:21:43]]></cmt>
    <desc><![CDATA[comment ...]]></desc>
    <trkseg>
      <trkpt lat="48.79327" lon="2.18545">
        <ele>133</ele>
        <time>2014-09-14T09:21:43Z</time>
      </trkpt>
      <trkpt lat="48.79327" lon="2.18545">
        <ele>133</ele>
        <time>2014-09-14T09:21:44Z</time>
      </trkpt>
      <trkpt lat="48.79323" lon="2.18546">
        <ele>129</ele>
        <time>2014-09-14T09:22:20Z</time>
      </trkpt>
      <trkpt lat="48.79316" lon="2.18555">
        <ele>130</ele>
        <time>2014-09-14T09:22:30Z</time>
      </trkpt>
      <trkpt lat="48.79317" lon="2.18563">
        <ele>127</ele>
        <time>2014-09-14T09:22:34Z</time>
      </trkpt>
      <trkpt lat="48.793" lon="2.18629">
        <ele>130</ele>
        <time>2014-09-14T09:23:04Z</time>
      </trkpt>
      <trkpt lat="48.79295" lon="2.18644">
        <ele>130</ele>
        <time>2014-09-14T09:23:12Z</time>
      </trkpt>
      <trkpt lat="48.7929" lon="2.1866">
        <ele>132</ele>
        <time>2014-09-14T09:23:20Z</time>
      </trkpt>
      <trkpt lat="48.79286" lon="2.18679">
        <ele>135</ele>
        <time>2014-09-14T09:23:29Z</time>
      </trkpt>
      <trkpt lat="48.79284" lon="2.18686">
        <ele>137</ele>
        <time>2014-09-14T09:23:31Z</time>
      </trkpt>
      <trkpt lat="48.79276" lon="2.18742">
        <ele>131</ele>
        <time>2014-09-14T09:24:02Z</time>
      </trkpt>
      <trkpt lat="48.7926" lon="2.18801">
        <ele>128</ele>
        <time>2014-09-14T09:24:32Z</time>
      </trkpt>
      <trkpt lat="48.79258" lon="2.18809">
        <ele>129</ele>
        <time>2014-09-14T09:24:36Z</time>
      </trkpt>
      <trkpt lat="48.79257" lon="2.18813">
        <ele>132</ele>
        <time>2014-09-14T09:24:38Z</time>
      </trkpt>
      <trkpt lat="48.79248" lon="2.18835">
        <ele>131</ele>
        <time>2014-09-14T09:24:53Z</time>
      </trkpt>
      <trkpt lat="48.79231" lon="2.18882">
        <ele>121</ele>
        <time>2014-09-14T09:25:24Z</time>
      </trkpt>
      <trkpt lat="48.7923" lon="2.18889">
        <ele>121</ele>
        <time>2014-09-14T09:25:28Z</time>
      </trkpt>
      <trkpt lat="48.7923" lon="2.18894">
        <ele>123</ele>
        <time>2014-09-14T09:25:30Z</time>
      </trkpt>
      <trkpt lat="48.79231" lon="2.18902">
        <ele>126</ele>
        <time>2014-09-14T09:25:34Z</time>
      </trkpt>
      <trkpt lat="48.79229" lon="2.18915">
        <ele>128</ele>
        <time>2014-09-14T09:25:40Z</time>
      </trkpt>
      <trkpt lat="48.79226" lon="2.18927">
        <ele>130</ele>
        <time>2014-09-14T09:25:45Z</time>
      </trkpt>
      <trkpt lat="48.79222" lon="2.18939">
        <ele>133</ele>
        <time>2014-09-14T09:25:51Z</time>
      </trkpt>
      <trkpt lat="48.7922" lon="2.18945">
        <ele>136</ele>
        <time>2014-09-14T09:25:53Z</time>
      </trkpt>
      <trkpt lat="48.79214" lon="2.18979">
        <ele>135</ele>
        <time>2014-09-14T09:26:09Z</time>
      </trkpt>
      <trkpt lat="48.7921" lon="2.19012">
        <ele>130</ele>
        <time>2014-09-14T09:26:25Z</time>
      </trkpt>
      <trkpt lat="48.79191" lon="2.19077">
        <ele>127</ele>
        <time>2014-09-14T09:26:55Z</time>
      </trkpt>
      <trkpt lat="48.79172" lon="2.19135">
        <ele>122</ele>
        <time>2014-09-14T09:27:25Z</time>
      </trkpt>
      <trkpt lat="48.7916" lon="2.19192">
        <ele>122</ele>
        <time>2014-09-14T09:27:55Z</time>
      </trkpt>
      <trkpt lat="48.79143" lon="2.19249">
        <ele>123</ele>
        <time>2014-09-14T09:28:21Z</time>
      </trkpt>
      <trkpt lat="48.79142" lon="2.1926">
        <ele>124</ele>
        <time>2014-09-14T09:28:25Z</time>
      </trkpt>
      <trkpt lat="48.7913" lon="2.19319">
        <ele>124</ele>
        <time>2014-09-14T09:28:55Z</time>
      </trkpt>
      <trkpt lat="48.79125" lon="2.1934">
        <ele>128</ele>
        <time>2014-09-14T09:29:07Z</time>
      </trkpt>
      <trkpt lat="48.79114" lon="2.19398">
        <ele>129</ele>
        <time>2014-09-14T09:29:36Z</time>
      </trkpt>
      <trkpt lat="48.79113" lon="2.19402">
        <ele>131</ele>
        <time>2014-09-14T09:29:38Z</time>
      </trkpt>
      <trkpt lat="48.79103" lon="2.19446">
        <ele>134</ele>
        <time>2014-09-14T09:29:59Z</time>
      </trkpt>
      <trkpt lat="48.79097" lon="2.19471">
        <ele>136</ele>
        <time>2014-09-14T09:30:12Z</time>
      </trkpt>
      <trkpt lat="48.79082" lon="2.19536">
        <ele>133</ele>
        <time>2014-09-14T09:30:43Z</time>
      </trkpt>
      <trkpt lat="48.79081" lon="2.1954">
        <ele>137</ele>
        <time>2014-09-14T09:30:45Z</time>
      </trkpt>
      <trkpt lat="48.79074" lon="2.19565">
        <ele>138</ele>
        <time>2014-09-14T09:30:57Z</time>
      </trkpt>
      <trkpt lat="48.79065" lon="2.196">
        <ele>141</ele>
        <time>2014-09-14T09:31:15Z</time>
      </trkpt>
      <trkpt lat="48.79057" lon="2.19623">
        <ele>141</ele>
        <time>2014-09-14T09:31:29Z</time>
      </trkpt>
      <trkpt lat="48.7905" lon="2.19636">
        <ele>143</ele>
        <time>2014-09-14T09:31:36Z</time>
      </trkpt>
      <trkpt lat="48.79037" lon="2.1968">
        <ele>144</ele>
        <time>2014-09-14T09:31:58Z</time>
      </trkpt>
      <trkpt lat="48.79037" lon="2.19694">
        <ele>143</ele>
        <time>2014-09-14T09:32:04Z</time>
      </trkpt>
      <trkpt lat="48.79034" lon="2.19704">
        <ele>142</ele>
        <time>2014-09-14T09:32:11Z</time>
      </trkpt>
      <trkpt lat="48.79017" lon="2.19764">
        <ele>137</ele>
        <time>2014-09-14T09:32:36Z</time>
      </trkpt>
      <trkpt lat="48.78999" lon="2.19834">
        <ele>134</ele>
        <time>2014-09-14T09:33:06Z</time>
      </trkpt>
      <trkpt lat="48.78998" lon="2.1984">
        <ele>137</ele>
        <time>2014-09-14T09:33:08Z</time>
      </trkpt>
      <trkpt lat="48.78996" lon="2.1985">
        <ele>138</ele>
        <time>2014-09-14T09:33:12Z</time>
      </trkpt>
      <trkpt lat="48.78992" lon="2.19861">
        <ele>140</ele>
        <time>2014-09-14T09:33:19Z</time>
      </trkpt>
      <trkpt lat="48.78983" lon="2.19888">
        <ele>138</ele>
        <time>2014-09-14T09:33:31Z</time>
      </trkpt>
      <trkpt lat="48.78983" lon="2.19893">
        <ele>138</ele>
        <time>2014-09-14T09:33:33Z</time>
      </trkpt>
      <trkpt lat="48.78978" lon="2.19923">
        <ele>136</ele>
        <time>2014-09-14T09:33:47Z</time>
      </trkpt>
      <trkpt lat="48.78975" lon="2.19932">
        <ele>136</ele>
        <time>2014-09-14T09:33:51Z</time>
      </trkpt>
      <trkpt lat="48.7896" lon="2.19973">
        <ele>139</ele>
        <time>2014-09-14T09:34:12Z</time>
      </trkpt>
      <trkpt lat="48.78959" lon="2.19976">
        <ele>142</ele>
        <time>2014-09-14T09:34:14Z</time>
      </trkpt>
      <trkpt lat="48.78954" lon="2.20023">
        <ele>144</ele>
        <time>2014-09-14T09:34:33Z</time>
      </trkpt>
      <trkpt lat="48.78955" lon="2.20027">
        <ele>146</ele>
        <time>2014-09-14T09:34:35Z</time>
      </trkpt>
      <trkpt lat="48.78942" lon="2.20084">
        <ele>145</ele>
        <time>2014-09-14T09:35:03Z</time>
      </trkpt>
      <trkpt lat="48.78935" lon="2.20107">
        <ele>147</ele>
        <time>2014-09-14T09:35:14Z</time>
      </trkpt>
      <trkpt lat="48.78919" lon="2.20168">
        <ele>138</ele>
        <time>2014-09-14T09:35:44Z</time>
      </trkpt>
      <trkpt lat="48.7891" lon="2.20216">
        <ele>136</ele>
        <time>2014-09-14T09:36:05Z</time>
      </trkpt>
      <trkpt lat="48.78908" lon="2.20224">
        <ele>140</ele>
        <time>2014-09-14T09:36:08Z</time>
      </trkpt>
      <trkpt lat="48.78901" lon="2.20254">
        <ele>141</ele>
        <time>2014-09-14T09:36:21Z</time>
      </trkpt>
      <trkpt lat="48.78898" lon="2.20269">
        <ele>143</ele>
        <time>2014-09-14T09:36:29Z</time>
      </trkpt>
      <trkpt lat="48.78883" lon="2.20336">
        <ele>144</ele>
        <time>2014-09-14T09:37:02Z</time>
      </trkpt>
      <trkpt lat="48.7888" lon="2.20355">
        <ele>147</ele>
        <time>2014-09-14T09:37:12Z</time>
      </trkpt>
      <trkpt lat="48.78878" lon="2.20358">
        <ele>149</ele>
        <time>2014-09-14T09:37:14Z</time>
      </trkpt>
      <trkpt lat="48.78875" lon="2.20372">
        <ele>150</ele>
        <time>2014-09-14T09:37:20Z</time>
      </trkpt>
      <trkpt lat="48.78877" lon="2.20379">
        <ele>144</ele>
        <time>2014-09-14T09:37:22Z</time>
      </trkpt>
      <trkpt lat="48.78883" lon="2.20397">
        <ele>139</ele>
        <time>2014-09-14T09:37:29Z</time>
      </trkpt>
      <trkpt lat="48.789" lon="2.20411">
        <ele>137</ele>
        <time>2014-09-14T09:37:42Z</time>
      </trkpt>
      <trkpt lat="48.78904" lon="2.20414">
        <ele>140</ele>
        <time>2014-09-14T09:37:45Z</time>
      </trkpt>
      <trkpt lat="48.7891" lon="2.20416">
        <ele>143</ele>
        <time>2014-09-14T09:37:51Z</time>
      </trkpt>
      <trkpt lat="48.78966" lon="2.20414">
        <ele>138</ele>
        <time>2014-09-14T09:38:21Z</time>
      </trkpt>
      <trkpt lat="48.78977" lon="2.20417">
        <ele>141</ele>
        <time>2014-09-14T09:38:28Z</time>
      </trkpt>
      <trkpt lat="48.78986" lon="2.20416">
        <ele>142</ele>
        <time>2014-09-14T09:38:34Z</time>
      </trkpt>
      <trkpt lat="48.79015" lon="2.20415">
        <ele>141</ele>
        <time>2014-09-14T09:38:52Z</time>
      </trkpt>
      <trkpt lat="48.79019" lon="2.2042">
        <ele>142</ele>
        <time>2014-09-14T09:38:56Z</time>
      </trkpt>
      <trkpt lat="48.79024" lon="2.20425">
        <ele>144</ele>
        <time>2014-09-14T09:38:59Z</time>
      </trkpt>
      <trkpt lat="48.7905" lon="2.20431">
        <ele>144</ele>
        <time>2014-09-14T09:39:22Z</time>
      </trkpt>
      <trkpt lat="48.7909" lon="2.20447">
        <ele>138</ele>
        <time>2014-09-14T09:39:53Z</time>
      </trkpt>
      <trkpt lat="48.79108" lon="2.20452">
        <ele>133</ele>
        <time>2014-09-14T09:40:08Z</time>
      </trkpt>
      <trkpt lat="48.79112" lon="2.20461">
        <ele>135</ele>
        <time>2014-09-14T09:40:13Z</time>
      </trkpt>
      <trkpt lat="48.79114" lon="2.20465">
        <ele>137</ele>
        <time>2014-09-14T09:40:15Z</time>
      </trkpt>
      <trkpt lat="48.79116" lon="2.20466">
        <ele>139</ele>
        <time>2014-09-14T09:40:17Z</time>
      </trkpt>
      <trkpt lat="48.79143" lon="2.20494">
        <ele>140</ele>
        <time>2014-09-14T09:40:46Z</time>
      </trkpt>
      <trkpt lat="48.79145" lon="2.20496">
        <ele>142</ele>
        <time>2014-09-14T09:40:50Z</time>
      </trkpt>
      <trkpt lat="48.79148" lon="2.20509">
        <ele>141</ele>
        <time>2014-09-14T09:41:18Z</time>
      </trkpt>
      <trkpt lat="48.7915" lon="2.20516">
        <ele>149</ele>
        <time>2014-09-14T09:41:31Z</time>
      </trkpt>
      <trkpt lat="48.79154" lon="2.20531">
        <ele>145</ele>
        <time>2014-09-14T09:41:44Z</time>
      </trkpt>
      <trkpt lat="48.79157" lon="2.20552">
        <ele>145</ele>
        <time>2014-09-14T09:42:17Z</time>
      </trkpt>
      <trkpt lat="48.79169" lon="2.20562">
        <ele>147</ele>
        <time>2014-09-14T09:42:41Z</time>
      </trkpt>
      <trkpt lat="48.79172" lon="2.20567">
        <ele>153</ele>
        <time>2014-09-14T09:42:50Z</time>
      </trkpt>
      <trkpt lat="48.79174" lon="2.20574">
        <ele>149</ele>
        <time>2014-09-14T09:42:55Z</time>
      </trkpt>
      <trkpt lat="48.79175" lon="2.20577">
        <ele>149</ele>
        <time>2014-09-14T09:43:01Z</time>
      </trkpt>
      <trkpt lat="48.79176" lon="2.20587">
        <ele>145</ele>
        <time>2014-09-14T09:43:06Z</time>
      </trkpt>
      <trkpt lat="48.79177" lon="2.20592">
        <ele>144</ele>
        <time>2014-09-14T09:43:07Z</time>
      </trkpt>
      <trkpt lat="48.79177" lon="2.20596">
        <ele>143</ele>
        <time>2014-09-14T09:43:09Z</time>
      </trkpt>
      <trkpt lat="48.79179" lon="2.206">
        <ele>144</ele>
        <time>2014-09-14T09:43:13Z</time>
      </trkpt>
      <trkpt lat="48.79181" lon="2.20604">
        <ele>144</ele>
        <time>2014-09-14T09:43:16Z</time>
      </trkpt>
      <trkpt lat="48.79183" lon="2.20607">
        <ele>151</ele>
        <time>2014-09-14T09:43:19Z</time>
      </trkpt>
      <trkpt lat="48.79185" lon="2.2061">
        <ele>159</ele>
        <time>2014-09-14T09:43:22Z</time>
      </trkpt>
      <trkpt lat="48.79186" lon="2.20613">
        <ele>161</ele>
        <time>2014-09-14T09:43:25Z</time>
      </trkpt>
      <trkpt lat="48.79194" lon="2.20623">
        <ele>158</ele>
        <time>2014-09-14T09:43:35Z</time>
      </trkpt>
      <trkpt lat="48.79197" lon="2.20626">
        <ele>159</ele>
        <time>2014-09-14T09:43:37Z</time>
      </trkpt>
      <trkpt lat="48.79206" lon="2.20633">
        <ele>159</ele>
        <time>2014-09-14T09:43:43Z</time>
      </trkpt>
      <trkpt lat="48.79206" lon="2.20636">
        <ele>161</ele>
        <time>2014-09-14T09:43:45Z</time>
      </trkpt>
      <trkpt lat="48.79207" lon="2.20641">
        <ele>163</ele>
        <time>2014-09-14T09:43:47Z</time>
      </trkpt>
      <trkpt lat="48.7921" lon="2.20643">
        <ele>163</ele>
        <time>2014-09-14T09:43:49Z</time>
      </trkpt>
      <trkpt lat="48.79251" lon="2.20669">
        <ele>161</ele>
        <time>2014-09-14T09:44:16Z</time>
      </trkpt>
      <trkpt lat="48.79254" lon="2.20663">
        <ele>160</ele>
        <time>2014-09-14T09:44:32Z</time>
      </trkpt>
      <trkpt lat="48.79256" lon="2.20665">
        <ele>164</ele>
        <time>2014-09-14T09:45:50Z</time>
      </trkpt>
      <trkpt lat="48.79257" lon="2.20668">
        <ele>162</ele>
        <time>2014-09-14T09:45:53Z</time>
      </trkpt>
      <trkpt lat="48.79258" lon="2.20671">
        <ele>166</ele>
        <time>2014-09-14T09:45:55Z</time>
      </trkpt>
      <trkpt lat="48.79261" lon="2.20676">
        <ele>167</ele>
        <time>2014-09-14T09:46:00Z</time>
      </trkpt>
      <trkpt lat="48.79261" lon="2.20679">
        <ele>168</ele>
        <time>2014-09-14T09:46:02Z</time>
      </trkpt>
      <trkpt lat="48.7926" lon="2.20686">
        <ele>168</ele>
        <time>2014-09-14T09:46:06Z</time>
      </trkpt>
      <trkpt lat="48.79258" lon="2.20688">
        <ele>168</ele>
        <time>2014-09-14T09:46:08Z</time>
      </trkpt>
      <trkpt lat="48.79257" lon="2.2069">
        <ele>170</ele>
        <time>2014-09-14T09:46:10Z</time>
      </trkpt>
      <trkpt lat="48.79255" lon="2.20698">
        <ele>170</ele>
        <time>2014-09-14T09:46:14Z</time>
      </trkpt>
      <trkpt lat="48.79242" lon="2.20736">
        <ele>171</ele>
        <time>2014-09-14T09:46:30Z</time>
      </trkpt>
      <trkpt lat="48.79239" lon="2.20743">
        <ele>172</ele>
        <time>2014-09-14T09:46:34Z</time>
      </trkpt>
      <trkpt lat="48.79227" lon="2.20785">
        <ele>172</ele>
        <time>2014-09-14T09:46:56Z</time>
      </trkpt>
      <trkpt lat="48.79224" lon="2.208">
        <ele>173</ele>
        <time>2014-09-14T09:47:01Z</time>
      </trkpt>
      <trkpt lat="48.79225" lon="2.20803">
        <ele>172</ele>
        <time>2014-09-14T09:47:02Z</time>
      </trkpt>
      <trkpt lat="48.79243" lon="2.20857">
        <ele>165</ele>
        <time>2014-09-14T09:47:26Z</time>
      </trkpt>
      <trkpt lat="48.79245" lon="2.20858">
        <ele>167</ele>
        <time>2014-09-14T09:47:28Z</time>
      </trkpt>
      <trkpt lat="48.79247" lon="2.20862">
        <ele>166</ele>
        <time>2014-09-14T09:47:30Z</time>
      </trkpt>
      <trkpt lat="48.79262" lon="2.20889">
        <ele>167</ele>
        <time>2014-09-14T09:47:46Z</time>
      </trkpt>
      <trkpt lat="48.79264" lon="2.20893">
        <ele>169</ele>
        <time>2014-09-14T09:47:48Z</time>
      </trkpt>
      <trkpt lat="48.79297" lon="2.20915">
        <ele>172</ele>
        <time>2014-09-14T09:48:13Z</time>
      </trkpt>
      <trkpt lat="48.79319" lon="2.20915">
        <ele>175</ele>
        <time>2014-09-14T09:48:31Z</time>
      </trkpt>
      <trkpt lat="48.79332" lon="2.20909">
        <ele>174</ele>
        <time>2014-09-14T09:48:41Z</time>
      </trkpt>
      <trkpt lat="48.79341" lon="2.20906">
        <ele>173</ele>
        <time>2014-09-14T09:48:49Z</time>
      </trkpt>
      <trkpt lat="48.79343" lon="2.20902">
        <ele>173</ele>
        <time>2014-09-14T09:48:51Z</time>
      </trkpt>
      <trkpt lat="48.79352" lon="2.20888">
        <ele>170</ele>
        <time>2014-09-14T09:48:57Z</time>
      </trkpt>
      <trkpt lat="48.79357" lon="2.20885">
        <ele>170</ele>
        <time>2014-09-14T09:48:59Z</time>
      </trkpt>
      <trkpt lat="48.7938" lon="2.20877">
        <ele>169</ele>
        <time>2014-09-14T09:49:30Z</time>
      </trkpt>
      <trkpt lat="48.79392" lon="2.20872">
        <ele>169</ele>
        <time>2014-09-14T09:49:36Z</time>
      </trkpt>
      <trkpt lat="48.79409" lon="2.20869">
        <ele>170</ele>
        <time>2014-09-14T09:49:46Z</time>
      </trkpt>
      <trkpt lat="48.79442" lon="2.20839">
        <ele>169</ele>
        <time>2014-09-14T09:50:06Z</time>
      </trkpt>
      <trkpt lat="48.79452" lon="2.20816">
        <ele>173</ele>
        <time>2014-09-14T09:50:16Z</time>
      </trkpt>
      <trkpt lat="48.79455" lon="2.20812">
        <ele>175</ele>
        <time>2014-09-14T09:50:18Z</time>
      </trkpt>
      <trkpt lat="48.79468" lon="2.20792">
        <ele>173</ele>
        <time>2014-09-14T09:50:26Z</time>
      </trkpt>
      <trkpt lat="48.79468" lon="2.20788">
        <ele>176</ele>
        <time>2014-09-14T09:50:30Z</time>
      </trkpt>
      <trkpt lat="48.79481" lon="2.2077">
        <ele>172</ele>
        <time>2014-09-14T09:50:40Z</time>
      </trkpt>
      <trkpt lat="48.79482" lon="2.20765">
        <ele>172</ele>
        <time>2014-09-14T09:50:42Z</time>
      </trkpt>
      <trkpt lat="48.79465" lon="2.20703">
        <ele>164</ele>
        <time>2014-09-14T09:51:13Z</time>
      </trkpt>
      <trkpt lat="48.79465" lon="2.20699">
        <ele>163</ele>
        <time>2014-09-14T09:51:15Z</time>
      </trkpt>
      <trkpt lat="48.79463" lon="2.20696">
        <ele>160</ele>
        <time>2014-09-14T09:51:17Z</time>
      </trkpt>
      <trkpt lat="48.79459" lon="2.20694">
        <ele>158</ele>
        <time>2014-09-14T09:51:19Z</time>
      </trkpt>
      <trkpt lat="48.79456" lon="2.20688">
        <ele>158</ele>
        <time>2014-09-14T09:51:23Z</time>
      </trkpt>
      <trkpt lat="48.79456" lon="2.20685">
        <ele>157</ele>
        <time>2014-09-14T09:51:25Z</time>
      </trkpt>
      <trkpt lat="48.79454" lon="2.20622">
        <ele>145</ele>
        <time>2014-09-14T09:51:55Z</time>
      </trkpt>
      <trkpt lat="48.79451" lon="2.2061">
        <ele>143</ele>
        <time>2014-09-14T09:52:01Z</time>
      </trkpt>
      <trkpt lat="48.79452" lon="2.20605">
        <ele>146</ele>
        <time>2014-09-14T09:52:04Z</time>
      </trkpt>
      <trkpt lat="48.79456" lon="2.206">
        <ele>144</ele>
        <time>2014-09-14T09:52:08Z</time>
      </trkpt>
      <trkpt lat="48.79453" lon="2.2059">
        <ele>142</ele>
        <time>2014-09-14T09:52:12Z</time>
      </trkpt>
      <trkpt lat="48.79453" lon="2.20586">
        <ele>143</ele>
        <time>2014-09-14T09:52:14Z</time>
      </trkpt>
      <trkpt lat="48.79452" lon="2.20578">
        <ele>147</ele>
        <time>2014-09-14T09:52:18Z</time>
      </trkpt>
      <trkpt lat="48.79453" lon="2.20576">
        <ele>147</ele>
        <time>2014-09-14T09:52:20Z</time>
      </trkpt>
      <trkpt lat="48.79455" lon="2.20573">
        <ele>148</ele>
        <time>2014-09-14T09:52:23Z</time>
      </trkpt>
      <trkpt lat="48.79457" lon="2.20569">
        <ele>154</ele>
        <time>2014-09-14T09:52:27Z</time>
      </trkpt>
      <trkpt lat="48.79458" lon="2.20564">
        <ele>154</ele>
        <time>2014-09-14T09:52:30Z</time>
      </trkpt>
      <trkpt lat="48.79457" lon="2.20547">
        <ele>152</ele>
        <time>2014-09-14T09:52:38Z</time>
      </trkpt>
      <trkpt lat="48.79455" lon="2.20545">
        <ele>153</ele>
        <time>2014-09-14T09:52:40Z</time>
      </trkpt>
      <trkpt lat="48.79453" lon="2.20541">
        <ele>153</ele>
        <time>2014-09-14T09:52:42Z</time>
      </trkpt>
      <trkpt lat="48.79453" lon="2.20537">
        <ele>153</ele>
        <time>2014-09-14T09:52:44Z</time>
      </trkpt>
      <trkpt lat="48.79452" lon="2.20527">
        <ele>153</ele>
        <time>2014-09-14T09:52:51Z</time>
      </trkpt>
      <trkpt lat="48.79457" lon="2.20516">
        <ele>154</ele>
        <time>2014-09-14T09:52:55Z</time>
      </trkpt>
      <trkpt lat="48.79459" lon="2.20513">
        <ele>156</ele>
        <time>2014-09-14T09:52:59Z</time>
      </trkpt>
      <trkpt lat="48.7947" lon="2.20446">
        <ele>152</ele>
        <time>2014-09-14T09:53:30Z</time>
      </trkpt>
      <trkpt lat="48.79473" lon="2.20433">
        <ele>149</ele>
        <time>2014-09-14T09:53:36Z</time>
      </trkpt>
      <trkpt lat="48.79467" lon="2.20401">
        <ele>138</ele>
        <time>2014-09-14T09:53:51Z</time>
      </trkpt>
      <trkpt lat="48.79465" lon="2.20385">
        <ele>140</ele>
        <time>2014-09-14T09:54:00Z</time>
      </trkpt>
      <trkpt lat="48.79468" lon="2.20368">
        <ele>141</ele>
        <time>2014-09-14T09:54:08Z</time>
      </trkpt>
      <trkpt lat="48.79476" lon="2.20309">
        <ele>137</ele>
        <time>2014-09-14T09:54:38Z</time>
      </trkpt>
      <trkpt lat="48.79477" lon="2.20303">
        <ele>139</ele>
        <time>2014-09-14T09:54:42Z</time>
      </trkpt>
      <trkpt lat="48.79492" lon="2.20285">
        <ele>138</ele>
        <time>2014-09-14T09:55:04Z</time>
      </trkpt>
      <trkpt lat="48.79498" lon="2.20283">
        <ele>139</ele>
        <time>2014-09-14T09:55:11Z</time>
      </trkpt>
      <trkpt lat="48.7951" lon="2.20266">
        <ele>138</ele>
        <time>2014-09-14T09:55:20Z</time>
      </trkpt>
      <trkpt lat="48.79526" lon="2.20248">
        <ele>137</ele>
        <time>2014-09-14T09:55:42Z</time>
      </trkpt>
      <trkpt lat="48.79561" lon="2.20255">
        <ele>137</ele>
        <time>2014-09-14T09:56:15Z</time>
      </trkpt>
      <trkpt lat="48.79585" lon="2.20274">
        <ele>135</ele>
        <time>2014-09-14T09:56:41Z</time>
      </trkpt>
      <trkpt lat="48.79597" lon="2.20269">
        <ele>136</ele>
        <time>2014-09-14T09:56:47Z</time>
      </trkpt>
      <trkpt lat="48.79613" lon="2.20282">
        <ele>135</ele>
        <time>2014-09-14T09:57:19Z</time>
      </trkpt>
      <trkpt lat="48.79625" lon="2.203">
        <ele>136</ele>
        <time>2014-09-14T09:57:36Z</time>
      </trkpt>
      <trkpt lat="48.79627" lon="2.20308">
        <ele>140</ele>
        <time>2014-09-14T09:57:41Z</time>
      </trkpt>
      <trkpt lat="48.79631" lon="2.20315">
        <ele>142</ele>
        <time>2014-09-14T09:57:45Z</time>
      </trkpt>
      <trkpt lat="48.79636" lon="2.20319">
        <ele>142</ele>
        <time>2014-09-14T09:57:51Z</time>
      </trkpt>
      <trkpt lat="48.79639" lon="2.20325">
        <ele>150</ele>
        <time>2014-09-14T09:58:00Z</time>
      </trkpt>
      <trkpt lat="48.7965" lon="2.20344">
        <ele>146</ele>
        <time>2014-09-14T09:58:19Z</time>
      </trkpt>
      <trkpt lat="48.79651" lon="2.20352">
        <ele>151</ele>
        <time>2014-09-14T09:58:24Z</time>
      </trkpt>
      <trkpt lat="48.79655" lon="2.20358">
        <ele>156</ele>
        <time>2014-09-14T09:58:32Z</time>
      </trkpt>
      <trkpt lat="48.79658" lon="2.20364">
        <ele>164</ele>
        <time>2014-09-14T09:58:48Z</time>
      </trkpt>
      <trkpt lat="48.79661" lon="2.2037">
        <ele>166</ele>
        <time>2014-09-14T09:59:03Z</time>
      </trkpt>
      <trkpt lat="48.79664" lon="2.20408">
        <ele>159</ele>
        <time>2014-09-14T09:59:32Z</time>
      </trkpt>
      <trkpt lat="48.79668" lon="2.20421">
        <ele>159</ele>
        <time>2014-09-14T09:59:55Z</time>
      </trkpt>
      <trkpt lat="48.79668" lon="2.2043">
        <ele>160</ele>
        <time>2014-09-14T09:59:59Z</time>
      </trkpt>
      <trkpt lat="48.79671" lon="2.20436">
        <ele>165</ele>
        <time>2014-09-14T10:00:12Z</time>
      </trkpt>
      <trkpt lat="48.7968" lon="2.20454">
        <ele>165</ele>
        <time>2014-09-14T10:00:27Z</time>
      </trkpt>
      <trkpt lat="48.79691" lon="2.20459">
        <ele>164</ele>
        <time>2014-09-14T10:00:43Z</time>
      </trkpt>
      <trkpt lat="48.79696" lon="2.20456">
        <ele>168</ele>
        <time>2014-09-14T10:00:48Z</time>
      </trkpt>
      <trkpt lat="48.7971" lon="2.20448">
        <ele>175</ele>
        <time>2014-09-14T10:01:03Z</time>
      </trkpt>
      <trkpt lat="48.79715" lon="2.20446">
        <ele>179</ele>
        <time>2014-09-14T10:01:07Z</time>
      </trkpt>
      <trkpt lat="48.79725" lon="2.20435">
        <ele>175</ele>
        <time>2014-09-14T10:01:16Z</time>
      </trkpt>
      <trkpt lat="48.79728" lon="2.20428">
        <ele>176</ele>
        <time>2014-09-14T10:01:19Z</time>
      </trkpt>
      <trkpt lat="48.7973" lon="2.20421">
        <ele>177</ele>
        <time>2014-09-14T10:01:23Z</time>
      </trkpt>
      <trkpt lat="48.79734" lon="2.20414">
        <ele>179</ele>
        <time>2014-09-14T10:01:27Z</time>
      </trkpt>
      <trkpt lat="48.79748" lon="2.20388">
        <ele>176</ele>
        <time>2014-09-14T10:01:51Z</time>
      </trkpt>
      <trkpt lat="48.79754" lon="2.20383">
        <ele>178</ele>
        <time>2014-09-14T10:01:54Z</time>
      </trkpt>
      <trkpt lat="48.79758" lon="2.20378">
        <ele>178</ele>
        <time>2014-09-14T10:01:58Z</time>
      </trkpt>
      <trkpt lat="48.79767" lon="2.20351">
        <ele>174</ele>
        <time>2014-09-14T10:02:29Z</time>
      </trkpt>
      <trkpt lat="48.79772" lon="2.20338">
        <ele>171</ele>
        <time>2014-09-14T10:02:41Z</time>
      </trkpt>
      <trkpt lat="48.79796" lon="2.20312">
        <ele>178</ele>
        <time>2014-09-14T10:03:11Z</time>
      </trkpt>
      <trkpt lat="48.7983" lon="2.20289">
        <ele>173</ele>
        <time>2014-09-14T10:03:41Z</time>
      </trkpt>
      <trkpt lat="48.79837" lon="2.20291">
        <ele>171</ele>
        <time>2014-09-14T10:03:48Z</time>
      </trkpt>
      <trkpt lat="48.79838" lon="2.20288">
        <ele>171</ele>
        <time>2014-09-14T10:03:52Z</time>
      </trkpt>
      <trkpt lat="48.79838" lon="2.20282">
        <ele>169</ele>
        <time>2014-09-14T10:03:55Z</time>
      </trkpt>
      <trkpt lat="48.79839" lon="2.20276">
        <ele>170</ele>
        <time>2014-09-14T10:03:58Z</time>
      </trkpt>
      <trkpt lat="48.79838" lon="2.20271">
        <ele>165</ele>
        <time>2014-09-14T10:04:01Z</time>
      </trkpt>
      <trkpt lat="48.79841" lon="2.20261">
        <ele>163</ele>
        <time>2014-09-14T10:04:09Z</time>
      </trkpt>
      <trkpt lat="48.79842" lon="2.20259">
        <ele>168</ele>
        <time>2014-09-14T10:04:16Z</time>
      </trkpt>
      <trkpt lat="48.79844" lon="2.20258">
        <ele>173</ele>
        <time>2014-09-14T10:04:31Z</time>
      </trkpt>
      <trkpt lat="48.79846" lon="2.20252">
        <ele>170</ele>
        <time>2014-09-14T10:04:38Z</time>
      </trkpt>
      <trkpt lat="48.79849" lon="2.20207">
        <ele>154</ele>
        <time>2014-09-14T10:05:10Z</time>
      </trkpt>
      <trkpt lat="48.79849" lon="2.20176">
        <ele>155</ele>
        <time>2014-09-14T10:05:26Z</time>
      </trkpt>
      <trkpt lat="48.79852" lon="2.20146">
        <ele>156</ele>
        <time>2014-09-14T10:05:44Z</time>
      </trkpt>
      <trkpt lat="48.79855" lon="2.20096">
        <ele>150</ele>
        <time>2014-09-14T10:06:14Z</time>
      </trkpt>
      <trkpt lat="48.79854" lon="2.20071">
        <ele>145</ele>
        <time>2014-09-14T10:06:24Z</time>
      </trkpt>
      <trkpt lat="48.79857" lon="2.20064">
        <ele>146</ele>
        <time>2014-09-14T10:06:28Z</time>
      </trkpt>
      <trkpt lat="48.79858" lon="2.20056">
        <ele>147</ele>
        <time>2014-09-14T10:06:32Z</time>
      </trkpt>
      <trkpt lat="48.79858" lon="2.20048">
        <ele>148</ele>
        <time>2014-09-14T10:06:37Z</time>
      </trkpt>
      <trkpt lat="48.79855" lon="2.2004">
        <ele>144</ele>
        <time>2014-09-14T10:06:41Z</time>
      </trkpt>
      <trkpt lat="48.79851" lon="2.19983">
        <ele>133</ele>
        <time>2014-09-14T10:07:15Z</time>
      </trkpt>
      <trkpt lat="48.79854" lon="2.19975">
        <ele>129</ele>
        <time>2014-09-14T10:07:19Z</time>
      </trkpt>
      <trkpt lat="48.79854" lon="2.19951">
        <ele>130</ele>
        <time>2014-09-14T10:07:49Z</time>
      </trkpt>
      <trkpt lat="48.79859" lon="2.19937">
        <ele>124</ele>
        <time>2014-09-14T10:07:57Z</time>
      </trkpt>
      <trkpt lat="48.79876" lon="2.19932">
        <ele>120</ele>
        <time>2014-09-14T10:08:13Z</time>
      </trkpt>
      <trkpt lat="48.79881" lon="2.19937">
        <ele>117</ele>
        <time>2014-09-14T10:08:19Z</time>
      </trkpt>
      <trkpt lat="48.79885" lon="2.19938">
        <ele>117</ele>
        <time>2014-09-14T10:08:22Z</time>
      </trkpt>
      <trkpt lat="48.79907" lon="2.19923">
        <ele>116</ele>
        <time>2014-09-14T10:08:40Z</time>
      </trkpt>
      <trkpt lat="48.79913" lon="2.19941">
        <ele>118</ele>
        <time>2014-09-14T10:08:54Z</time>
      </trkpt>
      <trkpt lat="48.7992" lon="2.19954">
        <ele>120</ele>
        <time>2014-09-14T10:09:01Z</time>
      </trkpt>
      <trkpt lat="48.79924" lon="2.19955">
        <ele>117</ele>
        <time>2014-09-14T10:09:03Z</time>
      </trkpt>
      <trkpt lat="48.79929" lon="2.19965">
        <ele>117</ele>
        <time>2014-09-14T10:09:08Z</time>
      </trkpt>
      <trkpt lat="48.79929" lon="2.1997">
        <ele>117</ele>
        <time>2014-09-14T10:09:10Z</time>
      </trkpt>
      <trkpt lat="48.79931" lon="2.19976">
        <ele>120</ele>
        <time>2014-09-14T10:09:13Z</time>
      </trkpt>
      <trkpt lat="48.79945" lon="2.19994">
        <ele>119</ele>
        <time>2014-09-14T10:09:25Z</time>
      </trkpt>
      <trkpt lat="48.79946" lon="2.19999">
        <ele>119</ele>
        <time>2014-09-14T10:09:27Z</time>
      </trkpt>
      <trkpt lat="48.7995" lon="2.20008">
        <ele>120</ele>
        <time>2014-09-14T10:09:31Z</time>
      </trkpt>
      <trkpt lat="48.7997" lon="2.20024">
        <ele>119</ele>
        <time>2014-09-14T10:09:44Z</time>
      </trkpt>
      <trkpt lat="48.79983" lon="2.20045">
        <ele>124</ele>
        <time>2014-09-14T10:09:58Z</time>
      </trkpt>
      <trkpt lat="48.7999" lon="2.20059">
        <ele>127</ele>
        <time>2014-09-14T10:10:07Z</time>
      </trkpt>
      <trkpt lat="48.79998" lon="2.20071">
        <ele>128</ele>
        <time>2014-09-14T10:10:15Z</time>
      </trkpt>
      <trkpt lat="48.80004" lon="2.20085">
        <ele>128</ele>
        <time>2014-09-14T10:10:23Z</time>
      </trkpt>
      <trkpt lat="48.8002" lon="2.2011">
        <ele>132</ele>
        <time>2014-09-14T10:10:44Z</time>
      </trkpt>
      <trkpt lat="48.80024" lon="2.20116">
        <ele>138</ele>
        <time>2014-09-14T10:10:50Z</time>
      </trkpt>
      <trkpt lat="48.80029" lon="2.20128">
        <ele>143</ele>
        <time>2014-09-14T10:11:03Z</time>
      </trkpt>
      <trkpt lat="48.80032" lon="2.20136">
        <ele>145</ele>
        <time>2014-09-14T10:11:09Z</time>
      </trkpt>
      <trkpt lat="48.80037" lon="2.20141">
        <ele>146</ele>
        <time>2014-09-14T10:11:15Z</time>
      </trkpt>
      <trkpt lat="48.80042" lon="2.20159">
        <ele>147</ele>
        <time>2014-09-14T10:11:26Z</time>
      </trkpt>
      <trkpt lat="48.80047" lon="2.2016">
        <ele>149</ele>
        <time>2014-09-14T10:11:32Z</time>
      </trkpt>
      <trkpt lat="48.80052" lon="2.20166">
        <ele>149</ele>
        <time>2014-09-14T10:11:39Z</time>
      </trkpt>
      <trkpt lat="48.80061" lon="2.20177">
        <ele>152</ele>
        <time>2014-09-14T10:11:50Z</time>
      </trkpt>
      <trkpt lat="48.80065" lon="2.20194">
        <ele>152</ele>
        <time>2014-09-14T10:11:59Z</time>
      </trkpt>
      <trkpt lat="48.80073" lon="2.20205">
        <ele>152</ele>
        <time>2014-09-14T10:12:10Z</time>
      </trkpt>
      <trkpt lat="48.80078" lon="2.2021">
        <ele>154</ele>
        <time>2014-09-14T10:12:16Z</time>
      </trkpt>
      <trkpt lat="48.80083" lon="2.20213">
        <ele>155</ele>
        <time>2014-09-14T10:12:22Z</time>
      </trkpt>
      <trkpt lat="48.80087" lon="2.2022">
        <ele>156</ele>
        <time>2014-09-14T10:12:29Z</time>
      </trkpt>
      <trkpt lat="48.8009" lon="2.20226">
        <ele>157</ele>
        <time>2014-09-14T10:12:32Z</time>
      </trkpt>
      <trkpt lat="48.80093" lon="2.20231">
        <ele>159</ele>
        <time>2014-09-14T10:12:35Z</time>
      </trkpt>
      <trkpt lat="48.80104" lon="2.20248">
        <ele>165</ele>
        <time>2014-09-14T10:12:47Z</time>
      </trkpt>
      <trkpt lat="48.80132" lon="2.20297">
        <ele>167</ele>
        <time>2014-09-14T10:13:19Z</time>
      </trkpt>
      <trkpt lat="48.80134" lon="2.20301">
        <ele>170</ele>
        <time>2014-09-14T10:13:22Z</time>
      </trkpt>
      <trkpt lat="48.8014" lon="2.20303">
        <ele>172</ele>
        <time>2014-09-14T10:13:27Z</time>
      </trkpt>
      <trkpt lat="48.80141" lon="2.20307">
        <ele>176</ele>
        <time>2014-09-14T10:13:30Z</time>
      </trkpt>
      <trkpt lat="48.80144" lon="2.2031">
        <ele>176</ele>
        <time>2014-09-14T10:13:34Z</time>
      </trkpt>
      <trkpt lat="48.80147" lon="2.20304">
        <ele>171</ele>
        <time>2014-09-14T10:13:55Z</time>
      </trkpt>
      <trkpt lat="48.80145" lon="2.20301">
        <ele>174</ele>
        <time>2014-09-14T10:13:59Z</time>
      </trkpt>
      <trkpt lat="48.80143" lon="2.203">
        <ele>174</ele>
        <time>2014-09-14T10:14:05Z</time>
      </trkpt>
      <trkpt lat="48.8014" lon="2.20301">
        <ele>168</ele>
        <time>2014-09-14T10:14:09Z</time>
      </trkpt>
      <trkpt lat="48.80134" lon="2.20305">
        <ele>169</ele>
        <time>2014-09-14T10:14:13Z</time>
      </trkpt>
      <trkpt lat="48.80131" lon="2.20307">
        <ele>171</ele>
        <time>2014-09-14T10:14:16Z</time>
      </trkpt>
      <trkpt lat="48.80125" lon="2.20312">
        <ele>173</ele>
        <time>2014-09-14T10:14:21Z</time>
      </trkpt>
      <trkpt lat="48.80118" lon="2.20319">
        <ele>175</ele>
        <time>2014-09-14T10:14:25Z</time>
      </trkpt>
      <trkpt lat="48.80115" lon="2.20326">
        <ele>176</ele>
        <time>2014-09-14T10:14:29Z</time>
      </trkpt>
      <trkpt lat="48.80106" lon="2.20346">
        <ele>175</ele>
        <time>2014-09-14T10:14:42Z</time>
      </trkpt>
      <trkpt lat="48.80106" lon="2.20355">
        <ele>172</ele>
        <time>2014-09-14T10:14:47Z</time>
      </trkpt>
      <trkpt lat="48.80108" lon="2.20364">
        <ele>169</ele>
        <time>2014-09-14T10:14:52Z</time>
      </trkpt>
      <trkpt lat="48.80113" lon="2.2037">
        <ele>168</ele>
        <time>2014-09-14T10:14:57Z</time>
      </trkpt>
      <trkpt lat="48.80121" lon="2.2038">
        <ele>169</ele>
        <time>2014-09-14T10:15:37Z</time>
      </trkpt>
      <trkpt lat="48.80131" lon="2.2037">
        <ele>171</ele>
        <time>2014-09-14T10:15:44Z</time>
      </trkpt>
      <trkpt lat="48.80136" lon="2.20366">
        <ele>174</ele>
        <time>2014-09-14T10:15:47Z</time>
      </trkpt>
      <trkpt lat="48.80142" lon="2.20365">
        <ele>177</ele>
        <time>2014-09-14T10:15:50Z</time>
      </trkpt>
      <trkpt lat="48.80155" lon="2.20361">
        <ele>182</ele>
        <time>2014-09-14T10:16:19Z</time>
      </trkpt>
      <trkpt lat="48.80164" lon="2.20353">
        <ele>183</ele>
        <time>2014-09-14T10:19:18Z</time>
      </trkpt>
      <trkpt lat="48.80172" lon="2.20337">
        <ele>183</ele>
        <time>2014-09-14T10:19:46Z</time>
      </trkpt>
      <trkpt lat="48.80171" lon="2.20326">
        <ele>184</ele>
        <time>2014-09-14T10:19:51Z</time>
      </trkpt>
      <trkpt lat="48.80174" lon="2.20324">
        <ele>186</ele>
        <time>2014-09-14T10:19:54Z</time>
      </trkpt>
      <trkpt lat="48.80178" lon="2.20314">
        <ele>183</ele>
        <time>2014-09-14T10:20:01Z</time>
      </trkpt>
      <trkpt lat="48.80177" lon="2.20272">
        <ele>173</ele>
        <time>2014-09-14T10:20:22Z</time>
      </trkpt>
      <trkpt lat="48.80171" lon="2.20254">
        <ele>165</ele>
        <time>2014-09-14T10:20:30Z</time>
      </trkpt>
      <trkpt lat="48.80172" lon="2.2025">
        <ele>168</ele>
        <time>2014-09-14T10:20:32Z</time>
      </trkpt>
      <trkpt lat="48.80172" lon="2.20243">
        <ele>172</ele>
        <time>2014-09-14T10:20:38Z</time>
      </trkpt>
      <trkpt lat="48.80171" lon="2.20239">
        <ele>172</ele>
        <time>2014-09-14T10:20:41Z</time>
      </trkpt>
      <trkpt lat="48.80168" lon="2.20231">
        <ele>176</ele>
        <time>2014-09-14T10:20:48Z</time>
      </trkpt>
      <trkpt lat="48.80179" lon="2.20211">
        <ele>173</ele>
        <time>2014-09-14T10:21:05Z</time>
      </trkpt>
      <trkpt lat="48.80208" lon="2.20181">
        <ele>172</ele>
        <time>2014-09-14T10:21:35Z</time>
      </trkpt>
      <trkpt lat="48.80226" lon="2.20164">
        <ele>172</ele>
        <time>2014-09-14T10:21:59Z</time>
      </trkpt>
      <trkpt lat="48.80262" lon="2.20146">
        <ele>173</ele>
        <time>2014-09-14T10:22:29Z</time>
      </trkpt>
      <trkpt lat="48.80276" lon="2.20136">
        <ele>173</ele>
        <time>2014-09-14T10:22:42Z</time>
      </trkpt>
      <trkpt lat="48.80282" lon="2.20134">
        <ele>176</ele>
        <time>2014-09-14T10:22:46Z</time>
      </trkpt>
      <trkpt lat="48.80327" lon="2.20096">
        <ele>169</ele>
        <time>2014-09-14T10:23:19Z</time>
      </trkpt>
      <trkpt lat="48.8033" lon="2.20089">
        <ele>170</ele>
        <time>2014-09-14T10:23:23Z</time>
      </trkpt>
      <trkpt lat="48.80335" lon="2.20083">
        <ele>172</ele>
        <time>2014-09-14T10:23:26Z</time>
      </trkpt>
      <trkpt lat="48.80337" lon="2.20076">
        <ele>167</ele>
        <time>2014-09-14T10:23:31Z</time>
      </trkpt>
      <trkpt lat="48.80349" lon="2.20045">
        <ele>165</ele>
        <time>2014-09-14T10:23:44Z</time>
      </trkpt>
      <trkpt lat="48.80349" lon="2.20026">
        <ele>162</ele>
        <time>2014-09-14T10:23:55Z</time>
      </trkpt>
      <trkpt lat="48.80358" lon="2.20014">
        <ele>162</ele>
        <time>2014-09-14T10:24:01Z</time>
      </trkpt>
      <trkpt lat="48.80359" lon="2.20005">
        <ele>160</ele>
        <time>2014-09-14T10:24:08Z</time>
      </trkpt>
      <trkpt lat="48.80363" lon="2.2">
        <ele>159</ele>
        <time>2014-09-14T10:24:11Z</time>
      </trkpt>
      <trkpt lat="48.80371" lon="2.19988">
        <ele>159</ele>
        <time>2014-09-14T10:24:18Z</time>
      </trkpt>
      <trkpt lat="48.80377" lon="2.19974">
        <ele>161</ele>
        <time>2014-09-14T10:24:25Z</time>
      </trkpt>
      <trkpt lat="48.80378" lon="2.19957">
        <ele>158</ele>
        <time>2014-09-14T10:24:35Z</time>
      </trkpt>
      <trkpt lat="48.80387" lon="2.19935">
        <ele>156</ele>
        <time>2014-09-14T10:24:43Z</time>
      </trkpt>
      <trkpt lat="48.80387" lon="2.19903">
        <ele>156</ele>
        <time>2014-09-14T10:24:58Z</time>
      </trkpt>
      <trkpt lat="48.80389" lon="2.19864">
        <ele>149</ele>
        <time>2014-09-14T10:25:21Z</time>
      </trkpt>
      <trkpt lat="48.80394" lon="2.19858">
        <ele>152</ele>
        <time>2014-09-14T10:25:25Z</time>
      </trkpt>
      <trkpt lat="48.80413" lon="2.19828">
        <ele>148</ele>
        <time>2014-09-14T10:25:42Z</time>
      </trkpt>
      <trkpt lat="48.80413" lon="2.19823">
        <ele>149</ele>
        <time>2014-09-14T10:25:44Z</time>
      </trkpt>
      <trkpt lat="48.80417" lon="2.19816">
        <ele>151</ele>
        <time>2014-09-14T10:25:48Z</time>
      </trkpt>
      <trkpt lat="48.8044" lon="2.19776">
        <ele>144</ele>
        <time>2014-09-14T10:26:11Z</time>
      </trkpt>
      <trkpt lat="48.80439" lon="2.19765">
        <ele>143</ele>
        <time>2014-09-14T10:26:18Z</time>
      </trkpt>
      <trkpt lat="48.80441" lon="2.19762">
        <ele>142</ele>
        <time>2014-09-14T10:26:20Z</time>
      </trkpt>
      <trkpt lat="48.80441" lon="2.19755">
        <ele>143</ele>
        <time>2014-09-14T10:26:23Z</time>
      </trkpt>
      <trkpt lat="48.80431" lon="2.19739">
        <ele>141</ele>
        <time>2014-09-14T10:26:33Z</time>
      </trkpt>
      <trkpt lat="48.80426" lon="2.19717">
        <ele>135</ele>
        <time>2014-09-14T10:26:47Z</time>
      </trkpt>
      <trkpt lat="48.80395" lon="2.1969">
        <ele>132</ele>
        <time>2014-09-14T10:27:06Z</time>
      </trkpt>
      <trkpt lat="48.80372" lon="2.19634">
        <ele>121</ele>
        <time>2014-09-14T10:27:38Z</time>
      </trkpt>
      <trkpt lat="48.80364" lon="2.19623">
        <ele>123</ele>
        <time>2014-09-14T10:27:45Z</time>
      </trkpt>
      <trkpt lat="48.80357" lon="2.19609">
        <ele>127</ele>
        <time>2014-09-14T10:27:54Z</time>
      </trkpt>
      <trkpt lat="48.80358" lon="2.19602">
        <ele>128</ele>
        <time>2014-09-14T10:27:59Z</time>
      </trkpt>
      <trkpt lat="48.80353" lon="2.19594">
        <ele>131</ele>
        <time>2014-09-14T10:28:08Z</time>
      </trkpt>
      <trkpt lat="48.80303" lon="2.19568">
        <ele>130</ele>
        <time>2014-09-14T10:28:36Z</time>
      </trkpt>
      <trkpt lat="48.80297" lon="2.19566">
        <ele>135</ele>
        <time>2014-09-14T10:28:43Z</time>
      </trkpt>
      <trkpt lat="48.80275" lon="2.19562">
        <ele>133</ele>
        <time>2014-09-14T10:29:05Z</time>
      </trkpt>
      <trkpt lat="48.80269" lon="2.19558">
        <ele>138</ele>
        <time>2014-09-14T10:29:09Z</time>
      </trkpt>
      <trkpt lat="48.80264" lon="2.19553">
        <ele>140</ele>
        <time>2014-09-14T10:29:14Z</time>
      </trkpt>
      <trkpt lat="48.80258" lon="2.19552">
        <ele>132</ele>
        <time>2014-09-14T10:29:19Z</time>
      </trkpt>
      <trkpt lat="48.80253" lon="2.19549">
        <ele>134</ele>
        <time>2014-09-14T10:29:23Z</time>
      </trkpt>
      <trkpt lat="48.80243" lon="2.19542">
        <ele>138</ele>
        <time>2014-09-14T10:29:35Z</time>
      </trkpt>
      <trkpt lat="48.80239" lon="2.19536">
        <ele>131</ele>
        <time>2014-09-14T10:29:47Z</time>
      </trkpt>
      <trkpt lat="48.80233" lon="2.19535">
        <ele>130</ele>
        <time>2014-09-14T10:29:51Z</time>
      </trkpt>
      <trkpt lat="48.80219" lon="2.19521">
        <ele>130</ele>
        <time>2014-09-14T10:30:06Z</time>
      </trkpt>
      <trkpt lat="48.8021" lon="2.19509">
        <ele>131</ele>
        <time>2014-09-14T10:30:16Z</time>
      </trkpt>
      <trkpt lat="48.80205" lon="2.19509">
        <ele>135</ele>
        <time>2014-09-14T10:30:23Z</time>
      </trkpt>
      <trkpt lat="48.80188" lon="2.19502">
        <ele>133</ele>
        <time>2014-09-14T10:30:34Z</time>
      </trkpt>
      <trkpt lat="48.80175" lon="2.19483">
        <ele>128</ele>
        <time>2014-09-14T10:30:51Z</time>
      </trkpt>
      <trkpt lat="48.80171" lon="2.1948">
        <ele>133</ele>
        <time>2014-09-14T10:30:54Z</time>
      </trkpt>
      <trkpt lat="48.8017" lon="2.19476">
        <ele>129</ele>
        <time>2014-09-14T10:30:57Z</time>
      </trkpt>
      <trkpt lat="48.80167" lon="2.19473">
        <ele>131</ele>
        <time>2014-09-14T10:31:00Z</time>
      </trkpt>
      <trkpt lat="48.80164" lon="2.19471">
        <ele>136</ele>
        <time>2014-09-14T10:31:05Z</time>
      </trkpt>
      <trkpt lat="48.80163" lon="2.19464">
        <ele>133</ele>
        <time>2014-09-14T10:31:10Z</time>
      </trkpt>
      <trkpt lat="48.80162" lon="2.19433">
        <ele>133</ele>
        <time>2014-09-14T10:31:25Z</time>
      </trkpt>
      <trkpt lat="48.80165" lon="2.19428">
        <ele>135</ele>
        <time>2014-09-14T10:31:28Z</time>
      </trkpt>
      <trkpt lat="48.80165" lon="2.19416">
        <ele>134</ele>
        <time>2014-09-14T10:31:34Z</time>
      </trkpt>
      <trkpt lat="48.80163" lon="2.19411">
        <ele>130</ele>
        <time>2014-09-14T10:31:36Z</time>
      </trkpt>
      <trkpt lat="48.80157" lon="2.19394">
        <ele>127</ele>
        <time>2014-09-14T10:31:46Z</time>
      </trkpt>
      <trkpt lat="48.80144" lon="2.19395">
        <ele>128</ele>
        <time>2014-09-14T10:31:53Z</time>
      </trkpt>
      <trkpt lat="48.80138" lon="2.19398">
        <ele>131</ele>
        <time>2014-09-14T10:31:57Z</time>
      </trkpt>
      <trkpt lat="48.80137" lon="2.19411">
        <ele>132</ele>
        <time>2014-09-14T10:32:35Z</time>
      </trkpt>
      <trkpt lat="48.80138" lon="2.19421">
        <ele>129</ele>
        <time>2014-09-14T10:32:43Z</time>
      </trkpt>
      <trkpt lat="48.80139" lon="2.1944">
        <ele>128</ele>
        <time>2014-09-14T10:32:53Z</time>
      </trkpt>
      <trkpt lat="48.80136" lon="2.19448">
        <ele>135</ele>
        <time>2014-09-14T10:32:58Z</time>
      </trkpt>
      <trkpt lat="48.80138" lon="2.19457">
        <ele>132</ele>
        <time>2014-09-14T10:33:08Z</time>
      </trkpt>
      <trkpt lat="48.8014" lon="2.19465">
        <ele>130</ele>
        <time>2014-09-14T10:33:12Z</time>
      </trkpt>
      <trkpt lat="48.80146" lon="2.19473">
        <ele>128</ele>
        <time>2014-09-14T10:33:15Z</time>
      </trkpt>
      <trkpt lat="48.80151" lon="2.19482">
        <ele>133</ele>
        <time>2014-09-14T10:33:19Z</time>
      </trkpt>
      <trkpt lat="48.80152" lon="2.19492">
        <ele>137</ele>
        <time>2014-09-14T10:33:23Z</time>
      </trkpt>
      <trkpt lat="48.80138" lon="2.19551">
        <ele>136</ele>
        <time>2014-09-14T10:33:55Z</time>
      </trkpt>
      <trkpt lat="48.80135" lon="2.19558">
        <ele>132</ele>
        <time>2014-09-14T10:34:01Z</time>
      </trkpt>
      <trkpt lat="48.8013" lon="2.19563">
        <ele>133</ele>
        <time>2014-09-14T10:34:06Z</time>
      </trkpt>
      <trkpt lat="48.8012" lon="2.19607">
        <ele>134</ele>
        <time>2014-09-14T10:34:35Z</time>
      </trkpt>
      <trkpt lat="48.80119" lon="2.19616">
        <ele>137</ele>
        <time>2014-09-14T10:34:43Z</time>
      </trkpt>
      <trkpt lat="48.80117" lon="2.19624">
        <ele>139</ele>
        <time>2014-09-14T10:34:48Z</time>
      </trkpt>
      <trkpt lat="48.80066" lon="2.19657">
        <ele>129</ele>
        <time>2014-09-14T10:35:19Z</time>
      </trkpt>
      <trkpt lat="48.80059" lon="2.19672">
        <ele>127</ele>
        <time>2014-09-14T10:35:28Z</time>
      </trkpt>
      <trkpt lat="48.80015" lon="2.19695">
        <ele>122</ele>
        <time>2014-09-14T10:35:59Z</time>
      </trkpt>
      <trkpt lat="48.79974" lon="2.19742">
        <ele>119</ele>
        <time>2014-09-14T10:36:32Z</time>
      </trkpt>
      <trkpt lat="48.79928" lon="2.19774">
        <ele>113</ele>
        <time>2014-09-14T10:37:05Z</time>
      </trkpt>
      <trkpt lat="48.79919" lon="2.19792">
        <ele>113</ele>
        <time>2014-09-14T10:37:13Z</time>
      </trkpt>
      <trkpt lat="48.79905" lon="2.19841">
        <ele>113</ele>
        <time>2014-09-14T10:37:37Z</time>
      </trkpt>
      <trkpt lat="48.79903" lon="2.19849">
        <ele>117</ele>
        <time>2014-09-14T10:37:44Z</time>
      </trkpt>
      <trkpt lat="48.799" lon="2.19856">
        <ele>115</ele>
        <time>2014-09-14T10:37:53Z</time>
      </trkpt>
      <trkpt lat="48.79898" lon="2.19866">
        <ele>117</ele>
        <time>2014-09-14T10:37:58Z</time>
      </trkpt>
      <trkpt lat="48.799" lon="2.1988">
        <ele>117</ele>
        <time>2014-09-14T10:38:06Z</time>
      </trkpt>
      <trkpt lat="48.79911" lon="2.19899">
        <ele>118</ele>
        <time>2014-09-14T10:38:18Z</time>
      </trkpt>
      <trkpt lat="48.79907" lon="2.19906">
        <ele>122</ele>
        <time>2014-09-14T10:38:28Z</time>
      </trkpt>
      <trkpt lat="48.79903" lon="2.19909">
        <ele>126</ele>
        <time>2014-09-14T10:38:34Z</time>
      </trkpt>
      <trkpt lat="48.79897" lon="2.19909">
        <ele>131</ele>
        <time>2014-09-14T10:38:39Z</time>
      </trkpt>
      <trkpt lat="48.79886" lon="2.1991">
        <ele>127</ele>
        <time>2014-09-14T10:39:10Z</time>
      </trkpt>
      <trkpt lat="48.79863" lon="2.19915">
        <ele>132</ele>
        <time>2014-09-14T10:39:21Z</time>
      </trkpt>
      <trkpt lat="48.79858" lon="2.19918">
        <ele>136</ele>
        <time>2014-09-14T10:39:26Z</time>
      </trkpt>
      <trkpt lat="48.79852" lon="2.19916">
        <ele>132</ele>
        <time>2014-09-14T10:39:32Z</time>
      </trkpt>
      <trkpt lat="48.79847" lon="2.19923">
        <ele>129</ele>
        <time>2014-09-14T10:39:38Z</time>
      </trkpt>
      <trkpt lat="48.79843" lon="2.19928">
        <ele>132</ele>
        <time>2014-09-14T10:39:43Z</time>
      </trkpt>
      <trkpt lat="48.79842" lon="2.19945">
        <ele>136</ele>
        <time>2014-09-14T10:39:53Z</time>
      </trkpt>
      <trkpt lat="48.7984" lon="2.19952">
        <ele>139</ele>
        <time>2014-09-14T10:40:00Z</time>
      </trkpt>
      <trkpt lat="48.79835" lon="2.19967">
        <ele>140</ele>
        <time>2014-09-14T10:40:13Z</time>
      </trkpt>
      <trkpt lat="48.79838" lon="2.19983">
        <ele>144</ele>
        <time>2014-09-14T10:40:26Z</time>
      </trkpt>
      <trkpt lat="48.79838" lon="2.19992">
        <ele>148</ele>
        <time>2014-09-14T10:40:31Z</time>
      </trkpt>
      <trkpt lat="48.79839" lon="2.20009">
        <ele>143</ele>
        <time>2014-09-14T10:40:38Z</time>
      </trkpt>
      <trkpt lat="48.79836" lon="2.20018">
        <ele>144</ele>
        <time>2014-09-14T10:40:42Z</time>
      </trkpt>
      <trkpt lat="48.7983" lon="2.20032">
        <ele>150</ele>
        <time>2014-09-14T10:40:48Z</time>
      </trkpt>
      <trkpt lat="48.7983" lon="2.20042">
        <ele>153</ele>
        <time>2014-09-14T10:40:52Z</time>
      </trkpt>
      <trkpt lat="48.79832" lon="2.20049">
        <ele>152</ele>
        <time>2014-09-14T10:40:56Z</time>
      </trkpt>
      <trkpt lat="48.79833" lon="2.20059">
        <ele>157</ele>
        <time>2014-09-14T10:41:00Z</time>
      </trkpt>
      <trkpt lat="48.79835" lon="2.20089">
        <ele>160</ele>
        <time>2014-09-14T10:41:11Z</time>
      </trkpt>
      <trkpt lat="48.7983" lon="2.20095">
        <ele>163</ele>
        <time>2014-09-14T10:41:15Z</time>
      </trkpt>
      <trkpt lat="48.79827" lon="2.20102">
        <ele>167</ele>
        <time>2014-09-14T10:41:20Z</time>
      </trkpt>
      <trkpt lat="48.79835" lon="2.20122">
        <ele>167</ele>
        <time>2014-09-14T10:41:35Z</time>
      </trkpt>
      <trkpt lat="48.79836" lon="2.20139">
        <ele>165</ele>
        <time>2014-09-14T10:41:51Z</time>
      </trkpt>
      <trkpt lat="48.79837" lon="2.20176">
        <ele>156</ele>
        <time>2014-09-14T10:42:24Z</time>
      </trkpt>
      <trkpt lat="48.79836" lon="2.20185">
        <ele>159</ele>
        <time>2014-09-14T10:42:27Z</time>
      </trkpt>
      <trkpt lat="48.79835" lon="2.20194">
        <ele>165</ele>
        <time>2014-09-14T10:42:35Z</time>
      </trkpt>
      <trkpt lat="48.79842" lon="2.20219">
        <ele>166</ele>
        <time>2014-09-14T10:42:47Z</time>
      </trkpt>
      <trkpt lat="48.79839" lon="2.20228">
        <ele>165</ele>
        <time>2014-09-14T10:42:51Z</time>
      </trkpt>
      <trkpt lat="48.79836" lon="2.20234">
        <ele>167</ele>
        <time>2014-09-14T10:42:55Z</time>
      </trkpt>
      <trkpt lat="48.79837" lon="2.20247">
        <ele>165</ele>
        <time>2014-09-14T10:43:03Z</time>
      </trkpt>
      <trkpt lat="48.79848" lon="2.20268">
        <ele>165</ele>
        <time>2014-09-14T10:43:13Z</time>
      </trkpt>
      <trkpt lat="48.79844" lon="2.20264">
        <ele>169</ele>
        <time>2014-09-14T10:43:28Z</time>
      </trkpt>
      <trkpt lat="48.79821" lon="2.20265">
        <ele>169</ele>
        <time>2014-09-14T10:43:45Z</time>
      </trkpt>
      <trkpt lat="48.79815" lon="2.20267">
        <ele>171</ele>
        <time>2014-09-14T10:43:49Z</time>
      </trkpt>
      <trkpt lat="48.7981" lon="2.20271">
        <ele>173</ele>
        <time>2014-09-14T10:43:53Z</time>
      </trkpt>
      <trkpt lat="48.79799" lon="2.20273">
        <ele>177</ele>
        <time>2014-09-14T10:44:01Z</time>
      </trkpt>
      <trkpt lat="48.7979" lon="2.20281">
        <ele>175</ele>
        <time>2014-09-14T10:45:32Z</time>
      </trkpt>
      <trkpt lat="48.79784" lon="2.20284">
        <ele>176</ele>
        <time>2014-09-14T10:45:35Z</time>
      </trkpt>
      <trkpt lat="48.79757" lon="2.20323">
        <ele>176</ele>
        <time>2014-09-14T10:46:06Z</time>
      </trkpt>
      <trkpt lat="48.79749" lon="2.20347">
        <ele>176</ele>
        <time>2014-09-14T10:46:16Z</time>
      </trkpt>
      <trkpt lat="48.79737" lon="2.2037">
        <ele>176</ele>
        <time>2014-09-14T10:46:28Z</time>
      </trkpt>
      <trkpt lat="48.79728" lon="2.20382">
        <ele>183</ele>
        <time>2014-09-14T10:46:36Z</time>
      </trkpt>
      <trkpt lat="48.79702" lon="2.20428">
        <ele>183</ele>
        <time>2014-09-14T10:47:06Z</time>
      </trkpt>
      <trkpt lat="48.79684" lon="2.20443">
        <ele>178</ele>
        <time>2014-09-14T10:47:41Z</time>
      </trkpt>
      <trkpt lat="48.79657" lon="2.20444">
        <ele>170</ele>
        <time>2014-09-14T10:47:54Z</time>
      </trkpt>
      <trkpt lat="48.79646" lon="2.20448">
        <ele>168</ele>
        <time>2014-09-14T10:48:02Z</time>
      </trkpt>
      <trkpt lat="48.79642" lon="2.20453">
        <ele>170</ele>
        <time>2014-09-14T10:48:06Z</time>
      </trkpt>
      <trkpt lat="48.79637" lon="2.20461">
        <ele>171</ele>
        <time>2014-09-14T10:48:09Z</time>
      </trkpt>
      <trkpt lat="48.79636" lon="2.20469">
        <ele>171</ele>
        <time>2014-09-14T10:48:12Z</time>
      </trkpt>
      <trkpt lat="48.79635" lon="2.2048">
        <ele>174</ele>
        <time>2014-09-14T10:48:16Z</time>
      </trkpt>
      <trkpt lat="48.79634" lon="2.20489">
        <ele>176</ele>
        <time>2014-09-14T10:48:20Z</time>
      </trkpt>
      <trkpt lat="48.79632" lon="2.205">
        <ele>179</ele>
        <time>2014-09-14T10:48:24Z</time>
      </trkpt>
      <trkpt lat="48.79643" lon="2.20527">
        <ele>180</ele>
        <time>2014-09-14T10:48:34Z</time>
      </trkpt>
      <trkpt lat="48.79642" lon="2.20536">
        <ele>182</ele>
        <time>2014-09-14T10:48:38Z</time>
      </trkpt>
      <trkpt lat="48.79637" lon="2.20544">
        <ele>183</ele>
        <time>2014-09-14T10:48:42Z</time>
      </trkpt>
      <trkpt lat="48.79638" lon="2.20567">
        <ele>187</ele>
        <time>2014-09-14T10:48:57Z</time>
      </trkpt>
      <trkpt lat="48.79646" lon="2.20581">
        <ele>183</ele>
        <time>2014-09-14T10:49:05Z</time>
      </trkpt>
      <trkpt lat="48.79654" lon="2.20593">
        <ele>186</ele>
        <time>2014-09-14T10:49:12Z</time>
      </trkpt>
      <trkpt lat="48.7966" lon="2.20609">
        <ele>188</ele>
        <time>2014-09-14T10:49:20Z</time>
      </trkpt>
      <trkpt lat="48.79668" lon="2.20623">
        <ele>187</ele>
        <time>2014-09-14T10:49:29Z</time>
      </trkpt>
      <trkpt lat="48.79664" lon="2.20629">
        <ele>182</ele>
        <time>2014-09-14T10:49:43Z</time>
      </trkpt>
      <trkpt lat="48.79656" lon="2.20633">
        <ele>180</ele>
        <time>2014-09-14T10:49:47Z</time>
      </trkpt>
      <trkpt lat="48.79654" lon="2.20643">
        <ele>178</ele>
        <time>2014-09-14T10:49:52Z</time>
      </trkpt>
      <trkpt lat="48.79647" lon="2.20646">
        <ele>180</ele>
        <time>2014-09-14T10:49:57Z</time>
      </trkpt>
      <trkpt lat="48.79642" lon="2.20652">
        <ele>184</ele>
        <time>2014-09-14T10:50:00Z</time>
      </trkpt>
      <trkpt lat="48.79632" lon="2.20664">
        <ele>186</ele>
        <time>2014-09-14T10:50:12Z</time>
      </trkpt>
      <trkpt lat="48.79625" lon="2.20666">
        <ele>188</ele>
        <time>2014-09-14T10:50:16Z</time>
      </trkpt>
      <trkpt lat="48.79616" lon="2.2068">
        <ele>190</ele>
        <time>2014-09-14T10:50:23Z</time>
      </trkpt>
      <trkpt lat="48.79597" lon="2.20694">
        <ele>186</ele>
        <time>2014-09-14T10:50:35Z</time>
      </trkpt>
      <trkpt lat="48.79595" lon="2.20703">
        <ele>187</ele>
        <time>2014-09-14T10:50:39Z</time>
      </trkpt>
      <trkpt lat="48.79584" lon="2.20714">
        <ele>187</ele>
        <time>2014-09-14T10:50:47Z</time>
      </trkpt>
      <trkpt lat="48.79583" lon="2.20734">
        <ele>190</ele>
        <time>2014-09-14T10:50:54Z</time>
      </trkpt>
      <trkpt lat="48.79571" lon="2.20755">
        <ele>184</ele>
        <time>2014-09-14T10:51:08Z</time>
      </trkpt>
      <trkpt lat="48.79565" lon="2.20757">
        <ele>182</ele>
        <time>2014-09-14T10:51:12Z</time>
      </trkpt>
      <trkpt lat="48.79548" lon="2.20786">
        <ele>180</ele>
        <time>2014-09-14T10:51:32Z</time>
      </trkpt>
      <trkpt lat="48.79506" lon="2.20826">
        <ele>176</ele>
        <time>2014-09-14T10:51:58Z</time>
      </trkpt>
      <trkpt lat="48.79489" lon="2.20845">
        <ele>176</ele>
        <time>2014-09-14T10:52:10Z</time>
      </trkpt>
      <trkpt lat="48.79476" lon="2.20843">
        <ele>178</ele>
        <time>2014-09-14T10:52:18Z</time>
      </trkpt>
      <trkpt lat="48.79463" lon="2.20827">
        <ele>166</ele>
        <time>2014-09-14T10:52:37Z</time>
      </trkpt>
      <trkpt lat="48.79452" lon="2.20828">
        <ele>166</ele>
        <time>2014-09-14T10:52:44Z</time>
      </trkpt>
      <trkpt lat="48.7944" lon="2.20831">
        <ele>169</ele>
        <time>2014-09-14T10:52:51Z</time>
      </trkpt>
      <trkpt lat="48.79433" lon="2.20835">
        <ele>172</ele>
        <time>2014-09-14T10:52:54Z</time>
      </trkpt>
      <trkpt lat="48.79428" lon="2.20839">
        <ele>172</ele>
        <time>2014-09-14T10:53:06Z</time>
      </trkpt>
      <trkpt lat="48.79392" lon="2.20833">
        <ele>169</ele>
        <time>2014-09-14T10:53:22Z</time>
      </trkpt>
      <trkpt lat="48.79383" lon="2.20844">
        <ele>168</ele>
        <time>2014-09-14T10:53:29Z</time>
      </trkpt>
      <trkpt lat="48.79376" lon="2.20844">
        <ele>169</ele>
        <time>2014-09-14T10:53:33Z</time>
      </trkpt>
      <trkpt lat="48.79369" lon="2.20846">
        <ele>171</ele>
        <time>2014-09-14T10:53:36Z</time>
      </trkpt>
      <trkpt lat="48.79359" lon="2.20856">
        <ele>172</ele>
        <time>2014-09-14T10:53:42Z</time>
      </trkpt>
      <trkpt lat="48.79354" lon="2.20865">
        <ele>171</ele>
        <time>2014-09-14T10:53:45Z</time>
      </trkpt>
      <trkpt lat="48.79353" lon="2.20875">
        <ele>175</ele>
        <time>2014-09-14T10:53:48Z</time>
      </trkpt>
      <trkpt lat="48.79348" lon="2.20882">
        <ele>179</ele>
        <time>2014-09-14T10:53:51Z</time>
      </trkpt>
      <trkpt lat="48.79344" lon="2.20887">
        <ele>183</ele>
        <time>2014-09-14T10:53:55Z</time>
      </trkpt>
      <trkpt lat="48.79339" lon="2.20885">
        <ele>176</ele>
        <time>2014-09-14T10:54:04Z</time>
      </trkpt>
      <trkpt lat="48.79333" lon="2.20887">
        <ele>177</ele>
        <time>2014-09-14T10:54:09Z</time>
      </trkpt>
      <trkpt lat="48.79313" lon="2.20886">
        <ele>177</ele>
        <time>2014-09-14T10:55:14Z</time>
      </trkpt>
      <trkpt lat="48.79285" lon="2.20869">
        <ele>169</ele>
        <time>2014-09-14T10:55:33Z</time>
      </trkpt>
      <trkpt lat="48.79278" lon="2.20858">
        <ele>169</ele>
        <time>2014-09-14T10:55:42Z</time>
      </trkpt>
      <trkpt lat="48.79273" lon="2.20854">
        <ele>172</ele>
        <time>2014-09-14T10:55:46Z</time>
      </trkpt>
      <trkpt lat="48.79249" lon="2.20848">
        <ele>169</ele>
        <time>2014-09-14T10:56:01Z</time>
      </trkpt>
      <trkpt lat="48.79245" lon="2.20841">
        <ele>169</ele>
        <time>2014-09-14T10:56:05Z</time>
      </trkpt>
      <trkpt lat="48.79243" lon="2.20817">
        <ele>172</ele>
        <time>2014-09-14T10:56:23Z</time>
      </trkpt>
      <trkpt lat="48.79247" lon="2.20783">
        <ele>171</ele>
        <time>2014-09-14T10:56:41Z</time>
      </trkpt>
      <trkpt lat="48.79259" lon="2.20757">
        <ele>174</ele>
        <time>2014-09-14T10:56:57Z</time>
      </trkpt>
      <trkpt lat="48.79271" lon="2.20715">
        <ele>174</ele>
        <time>2014-09-14T10:57:14Z</time>
      </trkpt>
      <trkpt lat="48.79275" lon="2.20698">
        <ele>178</ele>
        <time>2014-09-14T10:57:21Z</time>
      </trkpt>
      <trkpt lat="48.79274" lon="2.20689">
        <ele>176</ele>
        <time>2014-09-14T10:57:25Z</time>
      </trkpt>
      <trkpt lat="48.79268" lon="2.20675">
        <ele>175</ele>
        <time>2014-09-14T10:57:32Z</time>
      </trkpt>
      <trkpt lat="48.79267" lon="2.20667">
        <ele>168</ele>
        <time>2014-09-14T10:57:36Z</time>
      </trkpt>
      <trkpt lat="48.79261" lon="2.20652">
        <ele>166</ele>
        <time>2014-09-14T10:57:43Z</time>
      </trkpt>
      <trkpt lat="48.79251" lon="2.20643">
        <ele>163</ele>
        <time>2014-09-14T10:57:47Z</time>
      </trkpt>
      <trkpt lat="48.79246" lon="2.20639">
        <ele>162</ele>
        <time>2014-09-14T10:57:50Z</time>
      </trkpt>
      <trkpt lat="48.79234" lon="2.20638">
        <ele>168</ele>
        <time>2014-09-14T10:58:01Z</time>
      </trkpt>
      <trkpt lat="48.79178" lon="2.2063">
        <ele>163</ele>
        <time>2014-09-14T10:58:33Z</time>
      </trkpt>
      <trkpt lat="48.79166" lon="2.20632">
        <ele>166</ele>
        <time>2014-09-14T10:58:42Z</time>
      </trkpt>
      <trkpt lat="48.79156" lon="2.20637">
        <ele>169</ele>
        <time>2014-09-14T10:58:49Z</time>
      </trkpt>
      <trkpt lat="48.79149" lon="2.20637">
        <ele>171</ele>
        <time>2014-09-14T10:58:53Z</time>
      </trkpt>
      <trkpt lat="48.79143" lon="2.20639">
        <ele>174</ele>
        <time>2014-09-14T10:58:59Z</time>
      </trkpt>
      <trkpt lat="48.79137" lon="2.20634">
        <ele>178</ele>
        <time>2014-09-14T10:59:05Z</time>
      </trkpt>
      <trkpt lat="48.79104" lon="2.20628">
        <ele>179</ele>
        <time>2014-09-14T10:59:21Z</time>
      </trkpt>
      <trkpt lat="48.79089" lon="2.20616">
        <ele>181</ele>
        <time>2014-09-14T10:59:41Z</time>
      </trkpt>
      <trkpt lat="48.79084" lon="2.20616">
        <ele>177</ele>
        <time>2014-09-14T10:59:44Z</time>
      </trkpt>
      <trkpt lat="48.79069" lon="2.20606">
        <ele>178</ele>
        <time>2014-09-14T10:59:55Z</time>
      </trkpt>
      <trkpt lat="48.79015" lon="2.2059">
        <ele>166</ele>
        <time>2014-09-14T11:00:22Z</time>
      </trkpt>
      <trkpt lat="48.7901" lon="2.20594">
        <ele>162</ele>
        <time>2014-09-14T11:00:26Z</time>
      </trkpt>
      <trkpt lat="48.79006" lon="2.20603">
        <ele>162</ele>
        <time>2014-09-14T11:00:34Z</time>
      </trkpt>
      <trkpt lat="48.79001" lon="2.20607">
        <ele>165</ele>
        <time>2014-09-14T11:00:38Z</time>
      </trkpt>
      <trkpt lat="48.78996" lon="2.20612">
        <ele>167</ele>
        <time>2014-09-14T11:00:42Z</time>
      </trkpt>
      <trkpt lat="48.7899" lon="2.20614">
        <ele>171</ele>
        <time>2014-09-14T11:00:46Z</time>
      </trkpt>
      <trkpt lat="48.7897" lon="2.20625">
        <ele>171</ele>
        <time>2014-09-14T11:00:56Z</time>
      </trkpt>
      <trkpt lat="48.78963" lon="2.2063">
        <ele>174</ele>
        <time>2014-09-14T11:01:00Z</time>
      </trkpt>
      <trkpt lat="48.78943" lon="2.20652">
        <ele>178</ele>
        <time>2014-09-14T11:01:17Z</time>
      </trkpt>
      <trkpt lat="48.78926" lon="2.20672">
        <ele>179</ele>
        <time>2014-09-14T11:01:26Z</time>
      </trkpt>
      <trkpt lat="48.78922" lon="2.20682">
        <ele>184</ele>
        <time>2014-09-14T11:01:29Z</time>
      </trkpt>
      <trkpt lat="48.78916" lon="2.20687">
        <ele>181</ele>
        <time>2014-09-14T11:01:33Z</time>
      </trkpt>
      <trkpt lat="48.78904" lon="2.2069">
        <ele>170</ele>
        <time>2014-09-14T11:01:46Z</time>
      </trkpt>
      <trkpt lat="48.78899" lon="2.20686">
        <ele>165</ele>
        <time>2014-09-14T11:01:54Z</time>
      </trkpt>
      <trkpt lat="48.7888" lon="2.20684">
        <ele>166</ele>
        <time>2014-09-14T11:02:06Z</time>
      </trkpt>
      <trkpt lat="48.78874" lon="2.20686">
        <ele>174</ele>
        <time>2014-09-14T11:02:12Z</time>
      </trkpt>
      <trkpt lat="48.78868" lon="2.20687">
        <ele>176</ele>
        <time>2014-09-14T11:02:16Z</time>
      </trkpt>
      <trkpt lat="48.78856" lon="2.20684">
        <ele>178</ele>
        <time>2014-09-14T11:02:27Z</time>
      </trkpt>
      <trkpt lat="48.78836" lon="2.20675">
        <ele>172</ele>
        <time>2014-09-14T11:02:39Z</time>
      </trkpt>
      <trkpt lat="48.78829" lon="2.20677">
        <ele>168</ele>
        <time>2014-09-14T11:02:46Z</time>
      </trkpt>
      <trkpt lat="48.78826" lon="2.20685">
        <ele>167</ele>
        <time>2014-09-14T11:02:52Z</time>
      </trkpt>
      <trkpt lat="48.7882" lon="2.20689">
        <ele>170</ele>
        <time>2014-09-14T11:02:59Z</time>
      </trkpt>
      <trkpt lat="48.78806" lon="2.20692">
        <ele>170</ele>
        <time>2014-09-14T11:03:10Z</time>
      </trkpt>
      <trkpt lat="48.78801" lon="2.20695">
        <ele>173</ele>
        <time>2014-09-14T11:03:12Z</time>
      </trkpt>
      <trkpt lat="48.78792" lon="2.20694">
        <ele>176</ele>
        <time>2014-09-14T11:03:15Z</time>
      </trkpt>
      <trkpt lat="48.78779" lon="2.20691">
        <ele>178</ele>
        <time>2014-09-14T11:03:23Z</time>
      </trkpt>
      <trkpt lat="48.78774" lon="2.20685">
        <ele>181</ele>
        <time>2014-09-14T11:03:33Z</time>
      </trkpt>
      <trkpt lat="48.78765" lon="2.20682">
        <ele>180</ele>
        <time>2014-09-14T11:03:38Z</time>
      </trkpt>
      <trkpt lat="48.78758" lon="2.20682">
        <ele>184</ele>
        <time>2014-09-14T11:03:41Z</time>
      </trkpt>
      <trkpt lat="48.78753" lon="2.20675">
        <ele>183</ele>
        <time>2014-09-14T11:03:47Z</time>
      </trkpt>
      <trkpt lat="48.78742" lon="2.20653">
        <ele>181</ele>
        <time>2014-09-14T11:04:01Z</time>
      </trkpt>
      <trkpt lat="48.78744" lon="2.20634">
        <ele>176</ele>
        <time>2014-09-14T11:04:11Z</time>
      </trkpt>
      <trkpt lat="48.78739" lon="2.20607">
        <ele>176</ele>
        <time>2014-09-14T11:04:24Z</time>
      </trkpt>
      <trkpt lat="48.7874" lon="2.20598">
        <ele>179</ele>
        <time>2014-09-14T11:04:27Z</time>
      </trkpt>
      <trkpt lat="48.78739" lon="2.20588">
        <ele>180</ele>
        <time>2014-09-14T11:04:32Z</time>
      </trkpt>
      <trkpt lat="48.78732" lon="2.20583">
        <ele>179</ele>
        <time>2014-09-14T11:04:36Z</time>
      </trkpt>
      <trkpt lat="48.78685" lon="2.20552">
        <ele>174</ele>
        <time>2014-09-14T11:05:10Z</time>
      </trkpt>
      <trkpt lat="48.78678" lon="2.20553">
        <ele>173</ele>
        <time>2014-09-14T11:05:14Z</time>
      </trkpt>
      <trkpt lat="48.78667" lon="2.2055">
        <ele>175</ele>
        <time>2014-09-14T11:05:28Z</time>
      </trkpt>
      <trkpt lat="48.7866" lon="2.20552">
        <ele>179</ele>
        <time>2014-09-14T11:05:32Z</time>
      </trkpt>
      <trkpt lat="48.7866" lon="2.20539">
        <ele>176</ele>
        <time>2014-09-14T11:06:48Z</time>
      </trkpt>
      <trkpt lat="48.78683" lon="2.20522">
        <ele>169</ele>
        <time>2014-09-14T11:07:18Z</time>
      </trkpt>
      <trkpt lat="48.78692" lon="2.20515">
        <ele>166</ele>
        <time>2014-09-14T11:07:36Z</time>
      </trkpt>
      <trkpt lat="48.78694" lon="2.20508">
        <ele>166</ele>
        <time>2014-09-14T11:07:43Z</time>
      </trkpt>
      <trkpt lat="48.78704" lon="2.20497">
        <ele>164</ele>
        <time>2014-09-14T11:08:16Z</time>
      </trkpt>
      <trkpt lat="48.78703" lon="2.20485">
        <ele>169</ele>
        <time>2014-09-14T11:08:55Z</time>
      </trkpt>
      <trkpt lat="48.78698" lon="2.20463">
        <ele>168</ele>
        <time>2014-09-14T11:09:07Z</time>
      </trkpt>
      <trkpt lat="48.78695" lon="2.20439">
        <ele>165</ele>
        <time>2014-09-14T11:10:08Z</time>
      </trkpt>
      <trkpt lat="48.78688" lon="2.20434">
        <ele>163</ele>
        <time>2014-09-14T11:10:52Z</time>
      </trkpt>
      <trkpt lat="48.78686" lon="2.20415">
        <ele>159</ele>
        <time>2014-09-14T11:11:15Z</time>
      </trkpt>
      <trkpt lat="48.78691" lon="2.20399">
        <ele>155</ele>
        <time>2014-09-14T11:13:00Z</time>
      </trkpt>
      <trkpt lat="48.78696" lon="2.20393">
        <ele>154</ele>
        <time>2014-09-14T11:13:05Z</time>
      </trkpt>
      <trkpt lat="48.78701" lon="2.2039">
        <ele>157</ele>
        <time>2014-09-14T11:13:13Z</time>
      </trkpt>
      <trkpt lat="48.78705" lon="2.20382">
        <ele>156</ele>
        <time>2014-09-14T11:13:26Z</time>
      </trkpt>
      <trkpt lat="48.78705" lon="2.20365">
        <ele>154</ele>
        <time>2014-09-14T11:13:35Z</time>
      </trkpt>
      <trkpt lat="48.78708" lon="2.20357">
        <ele>152</ele>
        <time>2014-09-14T11:13:42Z</time>
      </trkpt>
      <trkpt lat="48.78723" lon="2.20337">
        <ele>154</ele>
        <time>2014-09-14T11:13:58Z</time>
      </trkpt>
      <trkpt lat="48.78759" lon="2.20299">
        <ele>153</ele>
        <time>2014-09-14T11:14:31Z</time>
      </trkpt>
      <trkpt lat="48.78763" lon="2.20294">
        <ele>151</ele>
        <time>2014-09-14T11:14:35Z</time>
      </trkpt>
      <trkpt lat="48.78795" lon="2.20246">
        <ele>143</ele>
        <time>2014-09-14T11:15:05Z</time>
      </trkpt>
      <trkpt lat="48.78817" lon="2.20213">
        <ele>139</ele>
        <time>2014-09-14T11:15:23Z</time>
      </trkpt>
      <trkpt lat="48.78837" lon="2.20195">
        <ele>142</ele>
        <time>2014-09-14T11:15:39Z</time>
      </trkpt>
      <trkpt lat="48.78855" lon="2.20174">
        <ele>141</ele>
        <time>2014-09-14T11:15:51Z</time>
      </trkpt>
      <trkpt lat="48.78877" lon="2.2014">
        <ele>145</ele>
        <time>2014-09-14T11:16:15Z</time>
      </trkpt>
      <trkpt lat="48.78889" lon="2.20126">
        <ele>154</ele>
        <time>2014-09-14T11:16:25Z</time>
      </trkpt>
      <trkpt lat="48.78902" lon="2.20107">
        <ele>156</ele>
        <time>2014-09-14T11:16:36Z</time>
      </trkpt>
      <trkpt lat="48.78909" lon="2.20104">
        <ele>150</ele>
        <time>2014-09-14T11:16:41Z</time>
      </trkpt>
      <trkpt lat="48.78918" lon="2.20093">
        <ele>149</ele>
        <time>2014-09-14T11:16:48Z</time>
      </trkpt>
      <trkpt lat="48.78923" lon="2.20087">
        <ele>154</ele>
        <time>2014-09-14T11:16:53Z</time>
      </trkpt>
      <trkpt lat="48.78926" lon="2.20079">
        <ele>160</ele>
        <time>2014-09-14T11:16:57Z</time>
      </trkpt>
      <trkpt lat="48.78939" lon="2.2006">
        <ele>156</ele>
        <time>2014-09-14T11:17:08Z</time>
      </trkpt>
      <trkpt lat="48.7895" lon="2.20053">
        <ele>155</ele>
        <time>2014-09-14T11:17:15Z</time>
      </trkpt>
      <trkpt lat="48.78969" lon="2.20018">
        <ele>148</ele>
        <time>2014-09-14T11:17:32Z</time>
      </trkpt>
      <trkpt lat="48.78979" lon="2.19999">
        <ele>144</ele>
        <time>2014-09-14T11:17:42Z</time>
      </trkpt>
      <trkpt lat="48.78982" lon="2.19981">
        <ele>142</ele>
        <time>2014-09-14T11:17:47Z</time>
      </trkpt>
      <trkpt lat="48.78994" lon="2.19956">
        <ele>141</ele>
        <time>2014-09-14T11:17:58Z</time>
      </trkpt>
      <trkpt lat="48.79" lon="2.19949">
        <ele>144</ele>
        <time>2014-09-14T11:18:03Z</time>
      </trkpt>
      <trkpt lat="48.79" lon="2.19939">
        <ele>144</ele>
        <time>2014-09-14T11:18:08Z</time>
      </trkpt>
      <trkpt lat="48.79" lon="2.19929">
        <ele>148</ele>
        <time>2014-09-14T11:18:13Z</time>
      </trkpt>
      <trkpt lat="48.79001" lon="2.19911">
        <ele>149</ele>
        <time>2014-09-14T11:18:25Z</time>
      </trkpt>
      <trkpt lat="48.79019" lon="2.19863">
        <ele>148</ele>
        <time>2014-09-14T11:18:49Z</time>
      </trkpt>
      <trkpt lat="48.7902" lon="2.19834">
        <ele>147</ele>
        <time>2014-09-14T11:19:01Z</time>
      </trkpt>
      <trkpt lat="48.79033" lon="2.19812">
        <ele>147</ele>
        <time>2014-09-14T11:19:13Z</time>
      </trkpt>
      <trkpt lat="48.79039" lon="2.19766">
        <ele>150</ele>
        <time>2014-09-14T11:19:33Z</time>
      </trkpt>
      <trkpt lat="48.7905" lon="2.19744">
        <ele>147</ele>
        <time>2014-09-14T11:19:43Z</time>
      </trkpt>
      <trkpt lat="48.79055" lon="2.19696">
        <ele>147</ele>
        <time>2014-09-14T11:20:05Z</time>
      </trkpt>
      <trkpt lat="48.79057" lon="2.19687">
        <ele>149</ele>
        <time>2014-09-14T11:20:09Z</time>
      </trkpt>
      <trkpt lat="48.79058" lon="2.19678">
        <ele>153</ele>
        <time>2014-09-14T11:20:15Z</time>
      </trkpt>
      <trkpt lat="48.7906" lon="2.19669">
        <ele>155</ele>
        <time>2014-09-14T11:20:21Z</time>
      </trkpt>
      <trkpt lat="48.79062" lon="2.19652">
        <ele>155</ele>
        <time>2014-09-14T11:20:30Z</time>
      </trkpt>
      <trkpt lat="48.79087" lon="2.19579">
        <ele>142</ele>
        <time>2014-09-14T11:21:00Z</time>
      </trkpt>
      <trkpt lat="48.79097" lon="2.19513">
        <ele>143</ele>
        <time>2014-09-14T11:21:27Z</time>
      </trkpt>
      <trkpt lat="48.791" lon="2.19491">
        <ele>144</ele>
        <time>2014-09-14T11:21:37Z</time>
      </trkpt>
      <trkpt lat="48.79104" lon="2.19484">
        <ele>143</ele>
        <time>2014-09-14T11:21:41Z</time>
      </trkpt>
      <trkpt lat="48.79116" lon="2.19421">
        <ele>133</ele>
        <time>2014-09-14T11:22:11Z</time>
      </trkpt>
      <trkpt lat="48.79129" lon="2.19356">
        <ele>125</ele>
        <time>2014-09-14T11:22:42Z</time>
      </trkpt>
      <trkpt lat="48.79134" lon="2.19335">
        <ele>125</ele>
        <time>2014-09-14T11:22:51Z</time>
      </trkpt>
      <trkpt lat="48.79138" lon="2.19323">
        <ele>129</ele>
        <time>2014-09-14T11:23:01Z</time>
      </trkpt>
      <trkpt lat="48.7914" lon="2.19315">
        <ele>131</ele>
        <time>2014-09-14T11:23:05Z</time>
      </trkpt>
      <trkpt lat="48.79141" lon="2.1931">
        <ele>133</ele>
        <time>2014-09-14T11:23:07Z</time>
      </trkpt>
      <trkpt lat="48.79158" lon="2.19243">
        <ele>131</ele>
        <time>2014-09-14T11:23:39Z</time>
      </trkpt>
      <trkpt lat="48.79176" lon="2.19177">
        <ele>119</ele>
        <time>2014-09-14T11:24:10Z</time>
      </trkpt>
      <trkpt lat="48.79178" lon="2.19169">
        <ele>118</ele>
        <time>2014-09-14T11:24:14Z</time>
      </trkpt>
      <trkpt lat="48.7918" lon="2.19151">
        <ele>121</ele>
        <time>2014-09-14T11:24:22Z</time>
      </trkpt>
      <trkpt lat="48.79191" lon="2.19133">
        <ele>121</ele>
        <time>2014-09-14T11:24:34Z</time>
      </trkpt>
      <trkpt lat="48.79195" lon="2.19126">
        <ele>124</ele>
        <time>2014-09-14T11:24:39Z</time>
      </trkpt>
      <trkpt lat="48.792" lon="2.19121">
        <ele>128</ele>
        <time>2014-09-14T11:24:45Z</time>
      </trkpt>
      <trkpt lat="48.79209" lon="2.19095">
        <ele>132</ele>
        <time>2014-09-14T11:24:59Z</time>
      </trkpt>
      <trkpt lat="48.79213" lon="2.19088">
        <ele>134</ele>
        <time>2014-09-14T11:25:03Z</time>
      </trkpt>
      <trkpt lat="48.79214" lon="2.19078">
        <ele>137</ele>
        <time>2014-09-14T11:25:08Z</time>
      </trkpt>
      <trkpt lat="48.79213" lon="2.1906">
        <ele>137</ele>
        <time>2014-09-14T11:25:17Z</time>
      </trkpt>
      <trkpt lat="48.79223" lon="2.19036">
        <ele>140</ele>
        <time>2014-09-14T11:25:31Z</time>
      </trkpt>
      <trkpt lat="48.79222" lon="2.19015">
        <ele>139</ele>
        <time>2014-09-14T11:25:41Z</time>
      </trkpt>
      <trkpt lat="48.79223" lon="2.19006">
        <ele>144</ele>
        <time>2014-09-14T11:25:45Z</time>
      </trkpt>
      <trkpt lat="48.79231" lon="2.18987">
        <ele>144</ele>
        <time>2014-09-14T11:25:55Z</time>
      </trkpt>
      <trkpt lat="48.79237" lon="2.18959">
        <ele>145</ele>
        <time>2014-09-14T11:26:08Z</time>
      </trkpt>
      <trkpt lat="48.79236" lon="2.1895">
        <ele>154</ele>
        <time>2014-09-14T11:26:15Z</time>
      </trkpt>
      <trkpt lat="48.79239" lon="2.1893">
        <ele>152</ele>
        <time>2014-09-14T11:26:28Z</time>
      </trkpt>
      <trkpt lat="48.79246" lon="2.18914">
        <ele>145</ele>
        <time>2014-09-14T11:26:38Z</time>
      </trkpt>
      <trkpt lat="48.79252" lon="2.1891">
        <ele>143</ele>
        <time>2014-09-14T11:26:43Z</time>
      </trkpt>
      <trkpt lat="48.79256" lon="2.18902">
        <ele>141</ele>
        <time>2014-09-14T11:26:50Z</time>
      </trkpt>
      <trkpt lat="48.79258" lon="2.1889">
        <ele>139</ele>
        <time>2014-09-14T11:26:54Z</time>
      </trkpt>
      <trkpt lat="48.79259" lon="2.18865">
        <ele>133</ele>
        <time>2014-09-14T11:27:04Z</time>
      </trkpt>
      <trkpt lat="48.79265" lon="2.18846">
        <ele>135</ele>
        <time>2014-09-14T11:27:13Z</time>
      </trkpt>
      <trkpt lat="48.79267" lon="2.18836">
        <ele>138</ele>
        <time>2014-09-14T11:27:17Z</time>
      </trkpt>
      <trkpt lat="48.7928" lon="2.1879">
        <ele>132</ele>
        <time>2014-09-14T11:27:36Z</time>
      </trkpt>
      <trkpt lat="48.79283" lon="2.18779">
        <ele>142</ele>
        <time>2014-09-14T11:27:45Z</time>
      </trkpt>
      <trkpt lat="48.79285" lon="2.1877">
        <ele>148</ele>
        <time>2014-09-14T11:27:51Z</time>
      </trkpt>
      <trkpt lat="48.79283" lon="2.18742">
        <ele>145</ele>
        <time>2014-09-14T11:28:00Z</time>
      </trkpt>
      <trkpt lat="48.79296" lon="2.1871">
        <ele>146</ele>
        <time>2014-09-14T11:28:30Z</time>
      </trkpt>
      <trkpt lat="48.79316" lon="2.18626">
        <ele>143</ele>
        <time>2014-09-14T11:29:02Z</time>
      </trkpt>
    </trkseg>
  </trk>
</gpx>